America — WDE6770 — position and weather

sailwx.info

Track history (hours):
 
Tides and Currents Weather Stations Pressure Air Temp Water Temp Dewpoint Dewpoint Depression Visibility Wind Speed Wind Dir Waves Ship Positions

America

Owner: Foss Maritime Company, Seattle, WA. More information available from US FCC via Universal Licensing System and Coast Guard Vessel Documentation Center.

Last reported at 2017-Nov-24 05:28 UTC. Time now 2017-Nov-24 05:36 UTC.
Position N 37°54' W 122°22'.

Length 30 m; draft 5.2 m.

Type: Tug. MMSI: 367384610.

Date/timePositionNaut miles runAvg speedWind from/ knotsBaromVisibWave heightAir tempDewpointWater temp
2017-Nov-24 05:28N 37°54' W 122°22'0 0.0
2017-Nov-24 04:58N 37°54' W 122°22'0 0.0
2017-Nov-24 04:25N 37°54' W 122°22'0 0.0
2017-Nov-24 03:58N 37°54' W 122°22'0 0.9
2017-Nov-24 03:30N 37°54' W 122°22'1 1.6
2017-Nov-24 03:00N 37°55' W 122°22'0 0.2
2017-Nov-24 02:30N 37°55' W 122°22'1 2.0
2017-Nov-24 02:00N 37°54' W 122°23'2 4.0
2017-Nov-24 01:31N 37°54' W 122°25'0 1.0
2017-Nov-24 01:00N 37°54' W 122°25'1 2.8
2017-Nov-24 00:30N 37°55' W 122°25'0 0.0
2017-Nov-23 23:57N 37°55' W 122°25'0 0.0
2017-Nov-23 23:30N 37°55' W 122°25'0 0.0
2017-Nov-23 23:00N 37°55' W 122°25'0 0.0
2017-Nov-23 22:30N 37°55' W 122°25'0 0.0
2017-Nov-23 22:00N 37°55' W 122°25'0 0.0
2017-Nov-23 21:30N 37°55' W 122°25'0 0.0
2017-Nov-23 21:00N 37°55' W 122°25'0 0.0
2017-Nov-23 20:30N 37°55' W 122°25'0 0.0
2017-Nov-23 20:00N 37°55' W 122°25'0 0.0
2017-Nov-23 19:30N 37°55' W 122°25'0 0.0
2017-Nov-23 19:00N 37°55' W 122°25'0 0.0
2017-Nov-23 18:30N 37°55' W 122°25'0 0.0
2017-Nov-23 18:00N 37°55' W 122°25'0 0.0
2017-Nov-23 17:31N 37°55' W 122°25'4 8.5
2017-Nov-23 17:00N 37°52' W 122°27'4 7.2
2017-Nov-23 16:30N 37°49' W 122°30'0 0.4
2017-Nov-23 16:00N 37°49' W 122°30'5 9.8
2017-Nov-23 15:30N 37°51' W 122°25'5 9.4
2017-Nov-23 15:00N 37°56' W 122°27'5 9.3
2017-Nov-23 14:30N 38°00' W 122°25'4 8.0
2017-Nov-23 14:00N 38°03' W 122°21'3 6.7
2017-Nov-23 13:30N 38°04' W 122°17'1 1.4
2017-Nov-23 13:00N 38°03' W 122°16'0 0.1
2017-Nov-23 12:30N 38°03' W 122°16'4 8.1
2017-Nov-23 12:00N 38°02' W 122°21'510.8
2017-Nov-23 11:31N 37°59' W 122°26'3 5.2
2017-Nov-23 10:53N 37°56' W 122°25'0 0.0
2017-Nov-23 10:29N 37°56' W 122°25'0 0.0
2017-Nov-23 09:56N 37°56' W 122°25'0 0.0
2017-Nov-23 09:29N 37°56' W 122°25'0 0.0
2017-Nov-23 08:59N 37°56' W 122°25'0 0.3
2017-Nov-23 08:30N 37°56' W 122°25'5 9.7
2017-Nov-23 08:01N 37°51' W 122°24'4 8.3
2017-Nov-23 07:30N 37°47' W 122°23'2 3.6
2017-Nov-23 07:00N 37°45' W 122°23'0 0.3
2017-Nov-23 06:30N 37°45' W 122°23'0 0.0
2017-Nov-23 06:00N 37°45' W 122°23'0 0.0
2017-Nov-23 05:30N 37°45' W 122°23'0 0.0
2017-Nov-23 05:01N 37°45' W 122°23'0 0.0
2017-Nov-23 04:30N 37°45' W 122°23'0 0.0
2017-Nov-23 04:01N 37°45' W 122°23'3 6.8
2017-Nov-23 03:30N 37°48' W 122°20'1 1.8
2017-Nov-23 03:01N 37°48' W 122°19'0 0.6
2017-Nov-23 02:30N 37°48' W 122°19'0 0.0
2017-Nov-23 02:01N 37°48' W 122°19'1 1.9
2017-Nov-23 01:31N 37°48' W 122°17'1 1.8
2017-Nov-23 01:01N 37°48' W 122°19'3 5.2
2017-Nov-23 00:30N 37°48' W 122°22'1 2.0
2017-Nov-23 00:00N 37°49' W 122°23'0 0.5
2017-Nov-22 23:31N 37°49' W 122°23'2 3.7
2017-Nov-22 23:01N 37°51' W 122°24'5 9.0
2017-Nov-22 22:30N 37°55' W 122°25'0 0.2
2017-Nov-22 21:56N 37°55' W 122°25'0 0.0
2017-Nov-22 21:29N 37°55' W 122°25'0 0.0
2017-Nov-22 20:59N 37°55' W 122°25'0 0.0
2017-Nov-22 20:29N 37°55' W 122°25'0 0.1
2017-Nov-22 19:59N 37°55' W 122°24'0 0.1
2017-Nov-22 19:29N 37°55' W 122°25'  
2017-Nov-20 00:30N 37°54' W 122°22'0 0.0
2017-Nov-20 00:00N 37°54' W 122°22'0 0.0
2017-Nov-19 23:30N 37°54' W 122°22'0 0.0
2017-Nov-19 23:00N 37°54' W 122°22'0 0.0
2017-Nov-19 22:30N 37°54' W 122°22'1 1.2
2017-Nov-19 21:59N 37°55' W 122°22'1 1.6
2017-Nov-19 21:28N 37°54' W 122°22'0 0.0
2017-Nov-19 20:58N 37°54' W 122°22'0 0.0
2017-Nov-19 20:28N 37°54' W 122°22'0 0.0
2017-Nov-19 19:58N 37°54' W 122°22'0 0.0
2017-Nov-19 19:28N 37°54' W 122°22'0 0.0
2017-Nov-19 19:00N 37°54' W 122°22'0 0.0
2017-Nov-19 18:30N 37°54' W 122°22'3 5.2
2017-Nov-19 18:00N 37°54' W 122°25'510.8
2017-Nov-19 17:30N 37°49' W 122°29'2 3.3
2017-Nov-19 17:00N 37°49' W 122°31'1 2.9
2017-Nov-19 16:30N 37°49' W 122°30'4 7.0
2017-Nov-19 16:00N 37°50' W 122°25'2 4.0
2017-Nov-19 15:30N 37°52' W 122°24'4 8.6
2017-Nov-19 15:01N 37°48' W 122°21'1 2.0
2017-Nov-19 14:31N 37°48' W 122°19'0 1.0
2017-Nov-19 14:00N 37°48' W 122°19'0 0.4
2017-Nov-19 13:30N 37°48' W 122°19'0 0.3
2017-Nov-19 13:01N 37°48' W 122°19'1 1.6
2017-Nov-19 12:31N 37°48' W 122°20'2 4.0
2017-Nov-19 12:00N 37°48' W 122°22'2 3.6
2017-Nov-19 11:31N 37°49' W 122°20'0 0.0
2017-Nov-19 11:01N 37°49' W 122°20'0 0.0
2017-Nov-19 10:30N 37°49' W 122°20'0 0.0
2017-Nov-19 10:01N 37°49' W 122°20'0 0.0
2017-Nov-19 09:30N 37°49' W 122°20'0 0.0
2017-Nov-19 09:01N 37°49' W 122°20'0 0.0
2017-Nov-19 08:30N 37°49' W 122°20'0 0.0
2017-Nov-19 08:00N 37°49' W 122°20'0 0.0
2017-Nov-19 07:30N 37°49' W 122°20'0 0.0
2017-Nov-19 07:00N 37°49' W 122°20'0 0.0
2017-Nov-19 06:30N 37°49' W 122°20'0 0.0
2017-Nov-19 06:00N 37°49' W 122°20'0 0.0
2017-Nov-19 05:30N 37°49' W 122°20'0 0.0
2017-Nov-19 05:00N 37°49' W 122°20'0 0.0
2017-Nov-19 04:30N 37°49' W 122°20'0 0.0
2017-Nov-19 04:00N 37°49' W 122°20'1 2.0
2017-Nov-19 03:31N 37°48' W 122°19'1 1.0
2017-Nov-19 03:00N 37°48' W 122°19'1 2.3
2017-Nov-19 02:31N 37°48' W 122°17'2 3.3
2017-Nov-19 02:00N 37°48' W 122°19'2 3.7
2017-Nov-19 01:30N 37°48' W 122°22'1 2.1
2017-Nov-19 01:00N 37°48' W 122°23'1 1.2
2017-Nov-19 00:30N 37°48' W 122°24'0 0.0
2017-Nov-19 00:00N 37°48' W 122°24'0 0.0
2017-Nov-18 23:30N 37°48' W 122°24'0 0.0
2017-Nov-18 23:01N 37°48' W 122°24'0 0.0
2017-Nov-18 22:30N 37°48' W 122°24'0 0.0
2017-Nov-18 22:00N 37°48' W 122°24'0 0.0
2017-Nov-18 21:30N 37°48' W 122°24'3 5.9
2017-Nov-18 21:00N 37°49' W 122°27'3 5.4
2017-Nov-18 20:30N 37°49' W 122°31'2 3.1
2017-Nov-18 20:01N 37°49' W 122°29'4 8.3
2017-Nov-18 19:31N 37°49' W 122°24'4 8.5
2017-Nov-18 19:01N 37°46' W 122°21'0 0.3
2017-Nov-18 18:30N 37°46' W 122°21'3 5.8
2017-Nov-18 18:00N 37°49' W 122°20'0 0.0
2017-Nov-18 17:30N 37°49' W 122°20'0 0.0
2017-Nov-18 17:00N 37°49' W 122°20'0 0.0
2017-Nov-18 16:30N 37°49' W 122°20'0 0.0
2017-Nov-18 16:00N 37°49' W 122°20'0 0.0
2017-Nov-18 15:30N 37°49' W 122°20'0 0.0
2017-Nov-18 15:00N 37°49' W 122°20'0 0.4
2017-Nov-18 14:30N 37°49' W 122°20'0 0.9
2017-Nov-18 14:01N 37°49' W 122°20'1 2.0
2017-Nov-18 13:31N 37°48' W 122°22'1 1.9
2017-Nov-18 13:00N 37°49' W 122°22'0 0.1
2017-Nov-18 12:27N 37°49' W 122°22'0 0.1
2017-Nov-18 12:00N 37°49' W 122°22'0 0.0
2017-Nov-18 11:30N 37°49' W 122°22'0 0.1
2017-Nov-18 11:00N 37°49' W 122°22'2 3.5
2017-Nov-18 10:31N 37°51' W 122°23'4 7.8
2017-Nov-18 10:00N 37°54' W 122°24'2 3.8
2017-Nov-18 09:30N 37°55' W 122°22'0 0.0
2017-Nov-18 09:01N 37°55' W 122°22'0 0.7
2017-Nov-18 08:30N 37°54' W 122°22'0 0.4
2017-Nov-18 08:00N 37°54' W 122°22'0 0.0
2017-Nov-18 07:31N 37°54' W 122°22'3 6.4
2017-Nov-18 07:00N 37°53' W 122°26'4 9.0
2017-Nov-18 06:31N 37°49' W 122°29'2 3.1
2017-Nov-18 06:00N 37°49' W 122°31'3 5.8
2017-Nov-18 05:30N 37°50' W 122°28'3 6.1
2017-Nov-18 05:00N 37°52' W 122°25'3 6.1
2017-Nov-18 04:30N 37°55' W 122°25'0 0.3
2017-Nov-18 04:00N 37°55' W 122°25'0 0.9
2017-Nov-18 03:30N 37°55' W 122°25'2 3.8
2017-Nov-18 03:00N 37°54' W 122°22'0 0.7
2017-Nov-18 02:30N 37°55' W 122°22'0 0.1
2017-Nov-18 02:00N 37°54' W 122°22'0 0.5
2017-Nov-18 01:31N 37°54' W 122°22'2 4.9
2017-Nov-18 01:01N 37°55' W 122°25'2 3.9
2017-Nov-18 00:30N 37°53' W 122°25'2 3.7
2017-Nov-18 00:00N 37°54' W 122°23'1 1.3
2017-Nov-17 23:30N 37°54' W 122°22'0 0.0
2017-Nov-17 23:00N 37°54' W 122°22'0 0.0
2017-Nov-17 22:30N 37°54' W 122°22'0 0.0
2017-Nov-17 22:00N 37°54' W 122°22'1 1.4
2017-Nov-17 21:30N 37°55' W 122°22'0 0.4
2017-Nov-17 21:00N 37°55' W 122°22'0 0.8
2017-Nov-17 20:31N 37°55' W 122°22'1 1.2
2017-Nov-17 20:00N 37°54' W 122°22'1 2.8
2017-Nov-17 19:30N 37°54' W 122°23'1 3.0
2017-Nov-17 19:00N 37°55' W 122°25'0 0.7
2017-Nov-17 18:30N 37°55' W 122°25'1 1.3
2017-Nov-17 17:59N 37°55' W 122°25'0 0.0
2017-Nov-17 17:26N 37°55' W 122°25'0 0.0
2017-Nov-17 16:56N 37°55' W 122°25'0 0.0
2017-Nov-17 16:29N 37°55' W 122°25'0 0.8
2017-Nov-17 16:00N 37°56' W 122°25'0 0.0
2017-Nov-17 15:30N 37°56' W 122°25'1 2.5
2017-Nov-17 15:00N 37°54' W 122°25'3 5.6
2017-Nov-17 14:31N 37°52' W 122°24'3 6.5
2017-Nov-17 14:00N 37°50' W 122°28'3 5.7
2017-Nov-17 13:30N 37°52' W 122°26'3 6.4
2017-Nov-17 13:01N 37°55' W 122°25'0 0.0
2017-Nov-17 12:30N 37°55' W 122°25'0 0.0
2017-Nov-17 12:00N 37°55' W 122°25'0 0.0
2017-Nov-17 11:30N 37°55' W 122°25'0 0.0
2017-Nov-17 11:00N 37°55' W 122°25'0 0.0
2017-Nov-17 10:30N 37°55' W 122°25'0 0.0
2017-Nov-17 10:01N 37°55' W 122°25'0 0.0
2017-Nov-17 09:31N 37°55' W 122°25'0 0.0
2017-Nov-17 09:01N 37°55' W 122°25'0 0.1
2017-Nov-17 08:30N 37°55' W 122°24'0 0.9
2017-Nov-17 08:00N 37°55' W 122°25'2 4.3
2017-Nov-17 07:30N 37°55' W 122°22'0 0.0
2017-Nov-17 07:00N 37°55' W 122°22'0 0.0
2017-Nov-17 06:30N 37°55' W 122°22'0 0.0
2017-Nov-17 06:00N 37°55' W 122°22'0 0.0
2017-Nov-17 05:30N 37°55' W 122°22'0 0.0
2017-Nov-17 05:00N 37°55' W 122°22'0 0.0
2017-Nov-17 04:30N 37°55' W 122°22'0 0.0
2017-Nov-17 04:00N 37°55' W 122°22'2 4.2
2017-Nov-17 03:31N 37°55' W 122°25'0 0.0
2017-Nov-17 03:00N 37°55' W 122°25'2 3.4
2017-Nov-17 02:31N 37°54' W 122°25'2 3.6
2017-Nov-17 02:00N 37°52' W 122°24'3 6.6
2017-Nov-17 01:29N 37°55' W 122°25'0 0.0
2017-Nov-17 00:59N 37°55' W 122°25'2 4.2
2017-Nov-17 00:30N 37°54' W 122°22'0 0.9
2017-Nov-17 00:01N 37°54' W 122°22'1 2.0
2017-Nov-16 23:29N 37°55' W 122°22'1 1.8
2017-Nov-16 22:58N 37°54' W 122°22'0 0.0
2017-Nov-16 22:19N 37°54' W 122°22'0 0.0
2017-Nov-16 21:58N 37°54' W 122°22'0 0.0
2017-Nov-16 21:25N 37°54' W 122°22'0 0.0
2017-Nov-16 20:55N 37°54' W 122°22'0 0.1
2017-Nov-16 20:22N 37°54' W 122°22'0 0.1
2017-Nov-16 19:59N 37°54' W 122°22'0 0.0
2017-Nov-16 19:28N 37°54' W 122°22'0 0.0
2017-Nov-16 18:58N 37°54' W 122°22'0 0.0
2017-Nov-16 16:58N 37°54' W 122°22'0 0.0
2017-Nov-16 16:28N 37°54' W 122°22'0 0.0
2017-Nov-16 15:58N 37°54' W 122°22'0 0.0
2017-Nov-16 15:28N 37°54' W 122°22'0 0.0
2017-Nov-16 14:58N 37°54' W 122°22'0 0.0
2017-Nov-16 14:28N 37°54' W 122°22'0 0.0
2017-Nov-16 14:00N 37°54' W 122°22'2 4.1
2017-Nov-16 13:30N 37°55' W 122°25'0 0.0
2017-Nov-16 13:00N 37°55' W 122°25'0 0.0
2017-Nov-16 12:31N 37°55' W 122°25'0 0.0
2017-Nov-16 12:01N 37°55' W 122°25'0 0.0
2017-Nov-16 11:31N 37°55' W 122°25'0 0.0
2017-Nov-16 11:00N 37°55' W 122°25'0 0.0
2017-Nov-16 10:31N 37°55' W 122°25'0 0.0
2017-Nov-16 10:00N 37°55' W 122°25'0 0.0
2017-Nov-16 09:30N 37°55' W 122°25'0 0.0
2017-Nov-16 09:01N 37°55' W 122°25'0 0.0
2017-Nov-16 08:31N 37°55' W 122°25'0 0.0
2017-Nov-16 08:01N 37°55' W 122°25'0 0.0
2017-Nov-16 07:31N 37°55' W 122°25'0 0.8
2017-Nov-16 07:01N 37°55' W 122°25'3 5.0
2017-Nov-16 06:31N 37°54' W 122°22'1 1.9
2017-Nov-16 06:01N 37°55' W 122°22'0 0.1
2017-Nov-16 05:31N 37°55' W 122°22'1 1.0
2017-Nov-16 05:00N 37°55' W 122°22'3 5.6
2017-Nov-16 04:31N 37°54' W 122°25'510.8
2017-Nov-16 04:01N 37°49' W 122°23'5 9.0
2017-Nov-16 03:30N 37°45' W 122°21'0 0.5
2017-Nov-16 03:01N 37°45' W 122°21'4 7.3
2017-Nov-16 02:31N 37°48' W 122°23'510.2
2017-Nov-16 02:01N 37°49' W 122°30'1 2.2
2017-Nov-16 01:31N 37°48' W 122°30'2 3.7
2017-Nov-16 01:01N 37°49' W 122°29'4 7.8
2017-Nov-16 00:30N 37°53' W 122°26'3 6.2
2017-Nov-16 00:01N 37°56' W 122°25'0 0.5
2017-Nov-15 23:31N 37°56' W 122°25'2 4.8
2017-Nov-15 23:01N 37°54' W 122°22'0 0.0
2017-Nov-15 22:31N 37°54' W 122°22'2 4.2
2017-Nov-15 22:01N 37°55' W 122°25'0 0.6
2017-Nov-15 21:30N 37°56' W 122°25'1 2.7
2017-Nov-15 21:01N 37°54' W 122°25'4 7.5
2017-Nov-15 20:31N 37°50' W 122°25'4 7.2
2017-Nov-15 20:00N 37°49' W 122°30'1 2.9
2017-Nov-15 19:30N 37°49' W 122°31'0 0.5
2017-Nov-15 19:00N 37°49' W 122°31'3 6.2
2017-Nov-15 18:30N 37°51' W 122°28'5 9.1
2017-Nov-15 18:01N 37°55' W 122°25'2 3.4
2017-Nov-15 17:25N 37°54' W 122°22'0 0.0
2017-Nov-15 16:58N 37°54' W 122°22'0 0.0
2017-Nov-15 16:25N 37°54' W 122°22'0 0.0
2017-Nov-15 15:58N 37°54' W 122°22'0 0.0
2017-Nov-15 15:25N 37°54' W 122°22'0 0.7
2017-Nov-15 15:00N 37°54' W 122°22'1 1.8
2017-Nov-15 14:31N 37°55' W 122°22'1 1.1
2017-Nov-15 14:00N 37°55' W 122°22'0 0.8
2017-Nov-15 13:30N 37°55' W 122°22'0 0.0
2017-Nov-15 13:00N 37°55' W 122°22'0 0.0
2017-Nov-15 12:30N 37°55' W 122°22'2 4.5
2017-Nov-15 12:00N 37°55' W 122°25'0 0.2
2017-Nov-15 11:29N 37°55' W 122°25'0 0.0
2017-Nov-15 10:56N 37°55' W 122°25'0 0.0
2017-Nov-15 10:29N 37°55' W 122°25'0 0.0
2017-Nov-15 09:59N 37°55' W 122°25'0 0.0
2017-Nov-15 09:14N 37°55' W 122°25'0 0.0
2017-Nov-15 08:59N 37°55' W 122°25'0 0.0
2017-Nov-15 08:29N 37°55' W 122°25'0 0.0
2017-Nov-15 07:59N 37°55' W 122°25'0 0.0
2017-Nov-15 07:26N 37°55' W 122°25'0 0.0
2017-Nov-15 06:53N 37°55' W 122°25'0 0.0
2017-Nov-15 06:29N 37°55' W 122°25'0 0.0
2017-Nov-15 05:56N 37°55' W 122°25'0 0.0
2017-Nov-15 05:29N 37°55' W 122°25'0 0.0
2017-Nov-15 04:56N 37°55' W 122°25'0 0.0
2017-Nov-15 04:29N 37°55' W 122°25'0 0.0
2017-Nov-15 03:59N 37°55' W 122°25'0 0.0
2017-Nov-15 03:29N 37°55' W 122°25'0 0.0
2017-Nov-15 02:56N 37°55' W 122°25'0 0.0
2017-Nov-15 02:29N 37°55' W 122°25'0 0.0
2017-Nov-15 01:56N 37°55' W 122°25'0 0.0
2017-Nov-15 01:24N 37°55' W 122°25'0 0.0
2017-Nov-15 00:59N 37°55' W 122°25'0 0.0
2017-Nov-15 00:29N 37°55' W 122°25'0 0.1
2017-Nov-15 00:00N 37°55' W 122°24'0 0.1
2017-Nov-14 23:30N 37°55' W 122°25'0 0.0
2017-Nov-14 23:00N 37°55' W 122°25'0 0.4
2017-Nov-14 22:30N 37°55' W 122°25'0 0.4
2017-Nov-14 22:00N 37°55' W 122°25'1 1.8
2017-Nov-14 21:30N 37°55' W 122°25'1 1.3
2017-Nov-14 21:00N 37°54' W 122°26'0 0.1
2017-Nov-14 20:30N 37°54' W 122°26'0 0.1
2017-Nov-14 20:00N 37°54' W 122°26'1 1.2
2017-Nov-14 19:30N 37°53' W 122°25'2 4.9
2017-Nov-14 19:00N 37°51' W 122°24'2 4.8
2017-Nov-14 18:30N 37°49' W 122°26'2 4.9
2017-Nov-14 18:00N 37°49' W 122°29'2 3.3
2017-Nov-14 17:30N 37°49' W 122°31'0 0.3
2017-Nov-14 17:00N 37°49' W 122°31'0 0.1
2017-Nov-14 16:30N 37°49' W 122°31'2 3.0
2017-Nov-14 16:00N 37°49' W 122°29'4 8.5
2017-Nov-14 15:30N 37°53' W 122°26'3 6.4
2017-Nov-14 15:00N 37°56' W 122°25'0 0.0
2017-Nov-14 14:30N 37°56' W 122°25'0 0.3
2017-Nov-14 14:01N 37°56' W 122°25'2 4.5
2017-Nov-14 13:30N 37°53' W 122°25'2 4.2
2017-Nov-14 13:00N 37°55' W 122°25'0 0.0
2017-Nov-14 12:30N 37°55' W 122°25'0 0.0
2017-Nov-14 12:00N 37°55' W 122°25'0 0.0
2017-Nov-14 11:30N 37°55' W 122°25'0 0.0
2017-Nov-14 11:00N 37°55' W 122°25'0 0.0
2017-Nov-14 10:30N 37°55' W 122°25'0 0.0
2017-Nov-14 10:00N 37°55' W 122°25'0 0.0
2017-Nov-14 09:30N 37°55' W 122°25'0 0.0
2017-Nov-14 09:00N 37°55' W 122°25'3 6.0
2017-Nov-14 08:29N 37°58' W 122°26'510.9
2017-Nov-14 08:00N 38°02' W 122°21'5 9.1
2017-Nov-14 07:30N 38°03' W 122°16'0 0.0
2017-Nov-14 07:00N 38°03' W 122°16'0 0.0
2017-Nov-14 06:30N 38°03' W 122°16'0 0.0
2017-Nov-14 06:00N 38°03' W 122°16'0 0.9
2017-Nov-14 05:30N 38°04' W 122°16'  
Track history (hours):
 
Tides and Currents Weather Stations Pressure Air Temp Water Temp Dewpoint Dewpoint Depression Visibility Wind Speed Wind Dir Waves Ship Positions

America

Owner: Foss Maritime Company, Seattle, WA. More information available from US FCC via Universal Licensing System and Coast Guard Vessel Documentation Center.

Last reported at 2017-Nov-24 05:28 UTC. Time now 2017-Nov-24 05:36 UTC.
Position N 37°54' W 122°22'.

Length 30 m; draft 5.2 m.

Type: Tug. MMSI: 367384610.

Date/timePositionNaut miles runAvg speedWind from/ knotsBaromVisibWave heightAir tempDewpointWater temp
2017-Nov-24 05:28N 37°54' W 122°22'0 0.0
2017-Nov-24 04:58N 37°54' W 122°22'0 0.0
2017-Nov-24 04:25N 37°54' W 122°22'0 0.0
2017-Nov-24 03:58N 37°54' W 122°22'0 0.9
2017-Nov-24 03:30N 37°54' W 122°22'1 1.6
2017-Nov-24 03:00N 37°55' W 122°22'0 0.2
2017-Nov-24 02:30N 37°55' W 122°22'1 2.0
2017-Nov-24 02:00N 37°54' W 122°23'2 4.0
2017-Nov-24 01:31N 37°54' W 122°25'0 1.0
2017-Nov-24 01:00N 37°54' W 122°25'1 2.8
2017-Nov-24 00:30N 37°55' W 122°25'0 0.0
2017-Nov-23 23:57N 37°55' W 122°25'0 0.0
2017-Nov-23 23:30N 37°55' W 122°25'0 0.0
2017-Nov-23 23:00N 37°55' W 122°25'0 0.0
2017-Nov-23 22:30N 37°55' W 122°25'0 0.0
2017-Nov-23 22:00N 37°55' W 122°25'0 0.0
2017-Nov-23 21:30N 37°55' W 122°25'0 0.0
2017-Nov-23 21:00N 37°55' W 122°25'0 0.0
2017-Nov-23 20:30N 37°55' W 122°25'0 0.0
2017-Nov-23 20:00N 37°55' W 122°25'0 0.0
2017-Nov-23 19:30N 37°55' W 122°25'0 0.0
2017-Nov-23 19:00N 37°55' W 122°25'0 0.0
2017-Nov-23 18:30N 37°55' W 122°25'0 0.0
2017-Nov-23 18:00N 37°55' W 122°25'0 0.0
2017-Nov-23 17:31N 37°55' W 122°25'4 8.5
2017-Nov-23 17:00N 37°52' W 122°27'4 7.2
2017-Nov-23 16:30N 37°49' W 122°30'0 0.4
2017-Nov-23 16:00N 37°49' W 122°30'5 9.8
2017-Nov-23 15:30N 37°51' W 122°25'5 9.4
2017-Nov-23 15:00N 37°56' W 122°27'5 9.3
2017-Nov-23 14:30N 38°00' W 122°25'4 8.0
2017-Nov-23 14:00N 38°03' W 122°21'3 6.7
2017-Nov-23 13:30N 38°04' W 122°17'1 1.4
2017-Nov-23 13:00N 38°03' W 122°16'0 0.1
2017-Nov-23 12:30N 38°03' W 122°16'4 8.1
2017-Nov-23 12:00N 38°02' W 122°21'510.8
2017-Nov-23 11:31N 37°59' W 122°26'3 5.2
2017-Nov-23 10:53N 37°56' W 122°25'0 0.0
2017-Nov-23 10:29N 37°56' W 122°25'0 0.0
2017-Nov-23 09:56N 37°56' W 122°25'0 0.0
2017-Nov-23 09:29N 37°56' W 122°25'0 0.0
2017-Nov-23 08:59N 37°56' W 122°25'0 0.3
2017-Nov-23 08:30N 37°56' W 122°25'5 9.7
2017-Nov-23 08:01N 37°51' W 122°24'4 8.3
2017-Nov-23 07:30N 37°47' W 122°23'2 3.6
2017-Nov-23 07:00N 37°45' W 122°23'0 0.3
2017-Nov-23 06:30N 37°45' W 122°23'0 0.0
2017-Nov-23 06:00N 37°45' W 122°23'0 0.0
2017-Nov-23 05:30N 37°45' W 122°23'0 0.0
2017-Nov-23 05:01N 37°45' W 122°23'0 0.0
2017-Nov-23 04:30N 37°45' W 122°23'0 0.0
2017-Nov-23 04:01N 37°45' W 122°23'3 6.8
2017-Nov-23 03:30N 37°48' W 122°20'1 1.8
2017-Nov-23 03:01N 37°48' W 122°19'0 0.6
2017-Nov-23 02:30N 37°48' W 122°19'0 0.0
2017-Nov-23 02:01N 37°48' W 122°19'1 1.9
2017-Nov-23 01:31N 37°48' W 122°17'1 1.8
2017-Nov-23 01:01N 37°48' W 122°19'3 5.2
2017-Nov-23 00:30N 37°48' W 122°22'1 2.0
2017-Nov-23 00:00N 37°49' W 122°23'0 0.5
2017-Nov-22 23:31N 37°49' W 122°23'2 3.7
2017-Nov-22 23:01N 37°51' W 122°24'5 9.0
2017-Nov-22 22:30N 37°55' W 122°25'0 0.2
2017-Nov-22 21:56N 37°55' W 122°25'0 0.0
2017-Nov-22 21:29N 37°55' W 122°25'0 0.0
2017-Nov-22 20:59N 37°55' W 122°25'0 0.0
2017-Nov-22 20:29N 37°55' W 122°25'0 0.1
2017-Nov-22 19:59N 37°55' W 122°24'0 0.1
2017-Nov-22 19:29N 37°55' W 122°25'  
2017-Nov-20 00:30N 37°54' W 122°22'0 0.0
2017-Nov-20 00:00N 37°54' W 122°22'0 0.0
2017-Nov-19 23:30N 37°54' W 122°22'0 0.0
2017-Nov-19 23:00N 37°54' W 122°22'0 0.0
2017-Nov-19 22:30N 37°54' W 122°22'1 1.2
2017-Nov-19 21:59N 37°55' W 122°22'1 1.6
2017-Nov-19 21:28N 37°54' W 122°22'0 0.0
2017-Nov-19 20:58N 37°54' W 122°22'0 0.0
2017-Nov-19 20:28N 37°54' W 122°22'0 0.0
2017-Nov-19 19:58N 37°54' W 122°22'0 0.0
2017-Nov-19 19:28N 37°54' W 122°22'0 0.0
2017-Nov-19 19:00N 37°54' W 122°22'0 0.0
2017-Nov-19 18:30N 37°54' W 122°22'3 5.2
2017-Nov-19 18:00N 37°54' W 122°25'510.8
2017-Nov-19 17:30N 37°49' W 122°29'2 3.3
2017-Nov-19 17:00N 37°49' W 122°31'1 2.9
2017-Nov-19 16:30N 37°49' W 122°30'4 7.0
2017-Nov-19 16:00N 37°50' W 122°25'2 4.0
2017-Nov-19 15:30N 37°52' W 122°24'4 8.6
2017-Nov-19 15:01N 37°48' W 122°21'1 2.0
2017-Nov-19 14:31N 37°48' W 122°19'0 1.0
2017-Nov-19 14:00N 37°48' W 122°19'0 0.4
2017-Nov-19 13:30N 37°48' W 122°19'0 0.3
2017-Nov-19 13:01N 37°48' W 122°19'1 1.6
2017-Nov-19 12:31N 37°48' W 122°20'2 4.0
2017-Nov-19 12:00N 37°48' W 122°22'2 3.6
2017-Nov-19 11:31N 37°49' W 122°20'0 0.0
2017-Nov-19 11:01N 37°49' W 122°20'0 0.0
2017-Nov-19 10:30N 37°49' W 122°20'0 0.0
2017-Nov-19 10:01N 37°49' W 122°20'0 0.0
2017-Nov-19 09:30N 37°49' W 122°20'0 0.0
2017-Nov-19 09:01N 37°49' W 122°20'0 0.0
2017-Nov-19 08:30N 37°49' W 122°20'0 0.0
2017-Nov-19 08:00N 37°49' W 122°20'0 0.0
2017-Nov-19 07:30N 37°49' W 122°20'0 0.0
2017-Nov-19 07:00N 37°49' W 122°20'0 0.0
2017-Nov-19 06:30N 37°49' W 122°20'0 0.0
2017-Nov-19 06:00N 37°49' W 122°20'0 0.0
2017-Nov-19 05:30N 37°49' W 122°20'0 0.0
2017-Nov-19 05:00N 37°49' W 122°20'0 0.0
2017-Nov-19 04:30N 37°49' W 122°20'0 0.0
2017-Nov-19 04:00N 37°49' W 122°20'1 2.0
2017-Nov-19 03:31N 37°48' W 122°19'1 1.0
2017-Nov-19 03:00N 37°48' W 122°19'1 2.3
2017-Nov-19 02:31N 37°48' W 122°17'2 3.3
2017-Nov-19 02:00N 37°48' W 122°19'2 3.7
2017-Nov-19 01:30N 37°48' W 122°22'1 2.1
2017-Nov-19 01:00N 37°48' W 122°23'1 1.2
2017-Nov-19 00:30N 37°48' W 122°24'0 0.0
2017-Nov-19 00:00N 37°48' W 122°24'0 0.0
2017-Nov-18 23:30N 37°48' W 122°24'0 0.0
2017-Nov-18 23:01N 37°48' W 122°24'0 0.0
2017-Nov-18 22:30N 37°48' W 122°24'0 0.0
2017-Nov-18 22:00N 37°48' W 122°24'0 0.0
2017-Nov-18 21:30N 37°48' W 122°24'3 5.9
2017-Nov-18 21:00N 37°49' W 122°27'3 5.4
2017-Nov-18 20:30N 37°49' W 122°31'2 3.1
2017-Nov-18 20:01N 37°49' W 122°29'4 8.3
2017-Nov-18 19:31N 37°49' W 122°24'4 8.5
2017-Nov-18 19:01N 37°46' W 122°21'0 0.3
2017-Nov-18 18:30N 37°46' W 122°21'3 5.8
2017-Nov-18 18:00N 37°49' W 122°20'0 0.0
2017-Nov-18 17:30N 37°49' W 122°20'0 0.0
2017-Nov-18 17:00N 37°49' W 122°20'0 0.0
2017-Nov-18 16:30N 37°49' W 122°20'0 0.0
2017-Nov-18 16:00N 37°49' W 122°20'0 0.0
2017-Nov-18 15:30N 37°49' W 122°20'0 0.0
2017-Nov-18 15:00N 37°49' W 122°20'0 0.4
2017-Nov-18 14:30N 37°49' W 122°20'0 0.9
2017-Nov-18 14:01N 37°49' W 122°20'1 2.0
2017-Nov-18 13:31N 37°48' W 122°22'1 1.9
2017-Nov-18 13:00N 37°49' W 122°22'0 0.1
2017-Nov-18 12:27N 37°49' W 122°22'0 0.1
2017-Nov-18 12:00N 37°49' W 122°22'0 0.0
2017-Nov-18 11:30N 37°49' W 122°22'0 0.1
2017-Nov-18 11:00N 37°49' W 122°22'2 3.5
2017-Nov-18 10:31N 37°51' W 122°23'4 7.8
2017-Nov-18 10:00N 37°54' W 122°24'2 3.8
2017-Nov-18 09:30N 37°55' W 122°22'0 0.0
2017-Nov-18 09:01N 37°55' W 122°22'0 0.7
2017-Nov-18 08:30N 37°54' W 122°22'0 0.4
2017-Nov-18 08:00N 37°54' W 122°22'0 0.0
2017-Nov-18 07:31N 37°54' W 122°22'3 6.4
2017-Nov-18 07:00N 37°53' W 122°26'4 9.0
2017-Nov-18 06:31N 37°49' W 122°29'2 3.1
2017-Nov-18 06:00N 37°49' W 122°31'3 5.8
2017-Nov-18 05:30N 37°50' W 122°28'3 6.1
2017-Nov-18 05:00N 37°52' W 122°25'3 6.1
2017-Nov-18 04:30N 37°55' W 122°25'0 0.3
2017-Nov-18 04:00N 37°55' W 122°25'0 0.9
2017-Nov-18 03:30N 37°55' W 122°25'2 3.8
2017-Nov-18 03:00N 37°54' W 122°22'0 0.7
2017-Nov-18 02:30N 37°55' W 122°22'0 0.1
2017-Nov-18 02:00N 37°54' W 122°22'0 0.5
2017-Nov-18 01:31N 37°54' W 122°22'2 4.9
2017-Nov-18 01:01N 37°55' W 122°25'2 3.9
2017-Nov-18 00:30N 37°53' W 122°25'2 3.7
2017-Nov-18 00:00N 37°54' W 122°23'1 1.3
2017-Nov-17 23:30N 37°54' W 122°22'0 0.0
2017-Nov-17 23:00N 37°54' W 122°22'0 0.0
2017-Nov-17 22:30N 37°54' W 122°22'0 0.0
2017-Nov-17 22:00N 37°54' W 122°22'1 1.4
2017-Nov-17 21:30N 37°55' W 122°22'0 0.4
2017-Nov-17 21:00N 37°55' W 122°22'0 0.8
2017-Nov-17 20:31N 37°55' W 122°22'1 1.2
2017-Nov-17 20:00N 37°54' W 122°22'1 2.8
2017-Nov-17 19:30N 37°54' W 122°23'1 3.0
2017-Nov-17 19:00N 37°55' W 122°25'0 0.7
2017-Nov-17 18:30N 37°55' W 122°25'1 1.3
2017-Nov-17 17:59N 37°55' W 122°25'0 0.0
2017-Nov-17 17:26N 37°55' W 122°25'0 0.0
2017-Nov-17 16:56N 37°55' W 122°25'0 0.0
2017-Nov-17 16:29N 37°55' W 122°25'0 0.8
2017-Nov-17 16:00N 37°56' W 122°25'0 0.0
2017-Nov-17 15:30N 37°56' W 122°25'1 2.5
2017-Nov-17 15:00N 37°54' W 122°25'3 5.6
2017-Nov-17 14:31N 37°52' W 122°24'3 6.5
2017-Nov-17 14:00N 37°50' W 122°28'3 5.7
2017-Nov-17 13:30N 37°52' W 122°26'3 6.4
2017-Nov-17 13:01N 37°55' W 122°25'0 0.0
2017-Nov-17 12:30N 37°55' W 122°25'0 0.0
2017-Nov-17 12:00N 37°55' W 122°25'0 0.0
2017-Nov-17 11:30N 37°55' W 122°25'0 0.0
2017-Nov-17 11:00N 37°55' W 122°25'0 0.0
2017-Nov-17 10:30N 37°55' W 122°25'0 0.0
2017-Nov-17 10:01N 37°55' W 122°25'0 0.0
2017-Nov-17 09:31N 37°55' W 122°25'0 0.0
2017-Nov-17 09:01N 37°55' W 122°25'0 0.1
2017-Nov-17 08:30N 37°55' W 122°24'0 0.9
2017-Nov-17 08:00N 37°55' W 122°25'2 4.3
2017-Nov-17 07:30N 37°55' W 122°22'0 0.0
2017-Nov-17 07:00N 37°55' W 122°22'0 0.0
2017-Nov-17 06:30N 37°55' W 122°22'0 0.0
2017-Nov-17 06:00N 37°55' W 122°22'0 0.0
2017-Nov-17 05:30N 37°55' W 122°22'0 0.0
2017-Nov-17 05:00N 37°55' W 122°22'0 0.0
2017-Nov-17 04:30N 37°55' W 122°22'0 0.0
2017-Nov-17 04:00N 37°55' W 122°22'2 4.2
2017-Nov-17 03:31N 37°55' W 122°25'0 0.0
2017-Nov-17 03:00N 37°55' W 122°25'2 3.4
2017-Nov-17 02:31N 37°54' W 122°25'2 3.6
2017-Nov-17 02:00N 37°52' W 122°24'3 6.6
2017-Nov-17 01:29N 37°55' W 122°25'0 0.0
2017-Nov-17 00:59N 37°55' W 122°25'2 4.2
2017-Nov-17 00:30N 37°54' W 122°22'0 0.9
2017-Nov-17 00:01N 37°54' W 122°22'1 2.0
2017-Nov-16 23:29N 37°55' W 122°22'1 1.8
2017-Nov-16 22:58N 37°54' W 122°22'0 0.0
2017-Nov-16 22:19N 37°54' W 122°22'0 0.0
2017-Nov-16 21:58N 37°54' W 122°22'0 0.0
2017-Nov-16 21:25N 37°54' W 122°22'0 0.0
2017-Nov-16 20:55N 37°54' W 122°22'0 0.1
2017-Nov-16 20:22N 37°54' W 122°22'0 0.1
2017-Nov-16 19:59N 37°54' W 122°22'0 0.0
2017-Nov-16 19:28N 37°54' W 122°22'0 0.0
2017-Nov-16 18:58N 37°54' W 122°22'0 0.0
2017-Nov-16 16:58N 37°54' W 122°22'0 0.0
2017-Nov-16 16:28N 37°54' W 122°22'0 0.0
2017-Nov-16 15:58N 37°54' W 122°22'0 0.0
2017-Nov-16 15:28N 37°54' W 122°22'0 0.0
2017-Nov-16 14:58N 37°54' W 122°22'0 0.0
2017-Nov-16 14:28N 37°54' W 122°22'0 0.0
2017-Nov-16 14:00N 37°54' W 122°22'2 4.1
2017-Nov-16 13:30N 37°55' W 122°25'0 0.0
2017-Nov-16 13:00N 37°55' W 122°25'0 0.0
2017-Nov-16 12:31N 37°55' W 122°25'0 0.0
2017-Nov-16 12:01N 37°55' W 122°25'0 0.0
2017-Nov-16 11:31N 37°55' W 122°25'0 0.0
2017-Nov-16 11:00N 37°55' W 122°25'0 0.0
2017-Nov-16 10:31N 37°55' W 122°25'0 0.0
2017-Nov-16 10:00N 37°55' W 122°25'0 0.0
2017-Nov-16 09:30N 37°55' W 122°25'0 0.0
2017-Nov-16 09:01N 37°55' W 122°25'0 0.0
2017-Nov-16 08:31N 37°55' W 122°25'0 0.0
2017-Nov-16 08:01N 37°55' W 122°25'0 0.0
2017-Nov-16 07:31N 37°55' W 122°25'0 0.8
2017-Nov-16 07:01N 37°55' W 122°25'3 5.0
2017-Nov-16 06:31N 37°54' W 122°22'1 1.9
2017-Nov-16 06:01N 37°55' W 122°22'0 0.1
2017-Nov-16 05:31N 37°55' W 122°22'1 1.0
2017-Nov-16 05:00N 37°55' W 122°22'3 5.6
2017-Nov-16 04:31N 37°54' W 122°25'510.8
2017-Nov-16 04:01N 37°49' W 122°23'5 9.0
2017-Nov-16 03:30N 37°45' W 122°21'0 0.5
2017-Nov-16 03:01N 37°45' W 122°21'4 7.3
2017-Nov-16 02:31N 37°48' W 122°23'510.2
2017-Nov-16 02:01N 37°49' W 122°30'1 2.2
2017-Nov-16 01:31N 37°48' W 122°30'2 3.7
2017-Nov-16 01:01N 37°49' W 122°29'4 7.8
2017-Nov-16 00:30N 37°53' W 122°26'3 6.2
2017-Nov-16 00:01N 37°56' W 122°25'0 0.5
2017-Nov-15 23:31N 37°56' W 122°25'2 4.8
2017-Nov-15 23:01N 37°54' W 122°22'0 0.0
2017-Nov-15 22:31N 37°54' W 122°22'2 4.2
2017-Nov-15 22:01N 37°55' W 122°25'0 0.6
2017-Nov-15 21:30N 37°56' W 122°25'1 2.7
2017-Nov-15 21:01N 37°54' W 122°25'4 7.5
2017-Nov-15 20:31N 37°50' W 122°25'4 7.2
2017-Nov-15 20:00N 37°49' W 122°30'1 2.9
2017-Nov-15 19:30N 37°49' W 122°31'0 0.5
2017-Nov-15 19:00N 37°49' W 122°31'3 6.2
2017-Nov-15 18:30N 37°51' W 122°28'5 9.1
2017-Nov-15 18:01N 37°55' W 122°25'2 3.4
2017-Nov-15 17:25N 37°54' W 122°22'0 0.0
2017-Nov-15 16:58N 37°54' W 122°22'0 0.0
2017-Nov-15 16:25N 37°54' W 122°22'0 0.0
2017-Nov-15 15:58N 37°54' W 122°22'0 0.0
2017-Nov-15 15:25N 37°54' W 122°22'0 0.7
2017-Nov-15 15:00N 37°54' W 122°22'1 1.8
2017-Nov-15 14:31N 37°55' W 122°22'1 1.1
2017-Nov-15 14:00N 37°55' W 122°22'0 0.8
2017-Nov-15 13:30N 37°55' W 122°22'0 0.0
2017-Nov-15 13:00N 37°55' W 122°22'0 0.0
2017-Nov-15 12:30N 37°55' W 122°22'2 4.5
2017-Nov-15 12:00N 37°55' W 122°25'0 0.2
2017-Nov-15 11:29N 37°55' W 122°25'0 0.0
2017-Nov-15 10:56N 37°55' W 122°25'0 0.0
2017-Nov-15 10:29N 37°55' W 122°25'0 0.0
2017-Nov-15 09:59N 37°55' W 122°25'0 0.0
2017-Nov-15 09:14N 37°55' W 122°25'0 0.0
2017-Nov-15 08:59N 37°55' W 122°25'0 0.0
2017-Nov-15 08:29N 37°55' W 122°25'0 0.0
2017-Nov-15 07:59N 37°55' W 122°25'0 0.0
2017-Nov-15 07:26N 37°55' W 122°25'0 0.0
2017-Nov-15 06:53N 37°55' W 122°25'0 0.0
2017-Nov-15 06:29N 37°55' W 122°25'0 0.0
2017-Nov-15 05:56N 37°55' W 122°25'0 0.0
2017-Nov-15 05:29N 37°55' W 122°25'0 0.0
2017-Nov-15 04:56N 37°55' W 122°25'0 0.0
2017-Nov-15 04:29N 37°55' W 122°25'0 0.0
2017-Nov-15 03:59N 37°55' W 122°25'0 0.0
2017-Nov-15 03:29N 37°55' W 122°25'0 0.0
2017-Nov-15 02:56N 37°55' W 122°25'0 0.0
2017-Nov-15 02:29N 37°55' W 122°25'0 0.0
2017-Nov-15 01:56N 37°55' W 122°25'0 0.0
2017-Nov-15 01:24N 37°55' W 122°25'0 0.0
2017-Nov-15 00:59N 37°55' W 122°25'0 0.0
2017-Nov-15 00:29N 37°55' W 122°25'0 0.1
2017-Nov-15 00:00N 37°55' W 122°24'0 0.1
2017-Nov-14 23:30N 37°55' W 122°25'0 0.0
2017-Nov-14 23:00N 37°55' W 122°25'0 0.4
2017-Nov-14 22:30N 37°55' W 122°25'0 0.4
2017-Nov-14 22:00N 37°55' W 122°25'1 1.8
2017-Nov-14 21:30N 37°55' W 122°25'1 1.3
2017-Nov-14 21:00N 37°54' W 122°26'0 0.1
2017-Nov-14 20:30N 37°54' W 122°26'0 0.1
2017-Nov-14 20:00N 37°54' W 122°26'1 1.2
2017-Nov-14 19:30N 37°53' W 122°25'2 4.9
2017-Nov-14 19:00N 37°51' W 122°24'2 4.8
2017-Nov-14 18:30N 37°49' W 122°26'2 4.9
2017-Nov-14 18:00N 37°49' W 122°29'2 3.3
2017-Nov-14 17:30N 37°49' W 122°31'0 0.3
2017-Nov-14 17:00N 37°49' W 122°31'0 0.1
2017-Nov-14 16:30N 37°49' W 122°31'2 3.0
2017-Nov-14 16:00N 37°49' W 122°29'4 8.5
2017-Nov-14 15:30N 37°53' W 122°26'3 6.4
2017-Nov-14 15:00N 37°56' W 122°25'0 0.0
2017-Nov-14 14:30N 37°56' W 122°25'0 0.3
2017-Nov-14 14:01N 37°56' W 122°25'2 4.5
2017-Nov-14 13:30N 37°53' W 122°25'2 4.2
2017-Nov-14 13:00N 37°55' W 122°25'0 0.0
2017-Nov-14 12:30N 37°55' W 122°25'0 0.0
2017-Nov-14 12:00N 37°55' W 122°25'0 0.0
2017-Nov-14 11:30N 37°55' W 122°25'0 0.0
2017-Nov-14 11:00N 37°55' W 122°25'0 0.0
2017-Nov-14 10:30N 37°55' W 122°25'0 0.0
2017-Nov-14 10:00N 37°55' W 122°25'0 0.0
2017-Nov-14 09:30N 37°55' W 122°25'0 0.0
2017-Nov-14 09:00N 37°55' W 122°25'3 6.0
2017-Nov-14 08:29N 37°58' W 122°26'510.9
2017-Nov-14 08:00N 38°02' W 122°21'5 9.1
2017-Nov-14 07:30N 38°03' W 122°16'0 0.0
2017-Nov-14 07:00N 38°03' W 122°16'0 0.0
2017-Nov-14 06:30N 38°03' W 122°16'0 0.0
2017-Nov-14 06:00N 38°03' W 122°16'0 0.9
2017-Nov-14 05:30N 38°04' W 122°16'  

Dump ship's entire track history